Portada
METAR-TAF:

METAR-TAF

Aeropuertos :

Rolla National Airport

Rolla, Misuri, Estados Unidos

latitud: 38-07-55N, longitud: 091-45-55W, altitud: 350 m

Observación

El informe se hizo hace 19 minutos, a las 07:53 UTC
Viento calma
Temperatura 18°C
Humedad 100%
Presión 1016 hPa
Visibilidad: 0.4 km
Cielo nuboso a una altura de 200 ft
Cielo nuboso a una altura de 12000 ft
niebla

METAR: KVIH 060753Z AUTO 00000KT 1/4SM FG BKN002 BKN120 18/18 A3000 RMK AO2 SLP147 T01830178 $

Hora: 03:12 (08:12 UTC)


TAF: falta

Observaciones y pronósticos meteorológicos de más de 4000 aeropuertos (mensajes METAR y TAF).

Los puntos amarillos y rojos representan las estaciones disponibles.

Ponga el ratón en el punto deseado para ver el nombre de la estación.

Haga clic para ver las observaciones y los pronósticos meteorológicos.

Para cambiar el mapa : haga clic en los botones verdes con una cruz de color negro para hacer un zoom, en el botón verde con un guión para alejar o en las flechas verdes para mapas adyacentes.


METAR-TAF: